Time;durP1;ratioP1;P1;durP2;ratioP2;P2;SDS_P1;SDS_P2;PMS_P1;PMS_P2;Temp;Humidity;BMP_temperature;BMP_pressure;BME280_temperature;BME280_humidity;BME280_pressure;Samples;Min_cycle;Max_cycle;Signal;HPM_P1;HPM_P2
2021/12/24 00:02:25;;;;;;;20.80;8.33;;;;;;;4.29;100.00;66211.97;5006282;28;20196;-72
2021/12/24 00:04:50;;;;;;;24.73;8.73;;;;;;;4.34;100.00;66217.78;5005245;28;20127;-71
2021/12/24 00:07:16;;;;;;;17.90;8.23;;;;;;;4.32;100.00;65887.44;5003755;28;20109;-71
2021/12/24 00:09:41;;;;;;;23.97;8.53;;;;;;;4.33;100.00;65560.63;5009045;28;20026;-71
2021/12/24 00:12:14;;;;;;;25.43;9.87;;;;;;;4.34;100.00;66546.41;5007338;28;21796;-71
2021/12/24 00:14:44;;;;;;;24.23;9.87;;;;;;;4.34;100.00;65889.75;5010223;28;20037;-71
2021/12/24 00:17:13;;;;;;;27.17;10.30;;;;;;;4.36;100.00;65892.06;5018186;28;20052;-71
2021/12/24 00:19:47;;;;;;;28.87;10.67;;;;;;;4.41;100.00;65897.91;5003045;28;20029;-71
2021/12/24 00:35:35;;;;;;;27.83;10.93;;;;;;;4.54;100.00;68210.53;5013056;28;20370;-71
2021/12/24 00:38:07;;;;;;;29.97;10.17;;;;;;;4.49;100.00;66563.41;5001942;28;20030;-71
2021/12/24 00:40:38;;;;;;;27.15;10.20;;;;;;;4.56;100.00;66243.44;5011843;28;20036;-71
2021/12/24 00:43:04;;;;;;;25.48;10.40;;;;;;;4.58;100.00;66902.16;5012345;28;20037;-71
2021/12/24 00:45:36;;;;;;;29.90;9.80;;;;;;;4.55;100.00;65586.03;5020151;28;20029;-71
2021/12/24 00:48:03;;;;;;;29.33;9.75;;;;;;;4.53;100.00;64599.66;5012275;28;20037;-71
2021/12/24 00:50:35;;;;;;;32.03;10.73;;;;;;;4.54;100.00;65584.31;5015796;28;20049;-71
2021/12/24 00:55:02;;;;;;;;;;;;;;;4.59;100.00;65262.56;5011891;28;20671;-71
2021/12/24 00:55:48;;;;;;;30.63;10.80;;;;;;;4.56;100.00;63946.56;5014367;28;19913;-69
2021/12/24 00:58:14;;;;;;;31.07;11.37;;;;;;;4.68;100.00;64944.22;5019668;28;20036;-69
2021/12/24 01:00:40;;;;;;;36.50;11.03;;;;;;;4.63;100.00;63955.03;5006413;28;20667;-69
2021/12/24 01:03:08;;;;;;;27.80;10.50;;;;;;;4.68;100.00;63960.09;5007500;28;20068;-69
2021/12/24 01:05:34;;;;;;;25.53;9.80;;;;;;;4.73;100.00;64621.28;5008009;28;20141;-69
2021/12/24 01:08:00;;;;;;;28.53;9.10;;;;;;;4.78;100.00;64955.09;5010452;28;20029;-69
2021/12/24 01:10:35;;;;;;;26.33;9.87;;;;;;;4.81;100.00;64302.81;5011162;28;20030;-69
2021/12/24 01:13:01;;;;;;;29.10;11.00;;;;;;;4.70;100.00;63634.91;5008617;28;20631;-72
2021/12/24 01:15:28;;;;;;;31.80;9.77;;;;;;;4.80;100.00;63317.00;5007367;28;20026;-69
2021/12/24 01:20:29;;;;;;;31.37;11.27;;;;;;;4.85;100.00;62339.19;5013767;28;20034;-70
2021/12/24 01:25:34;;;;;;;26.20;9.50;;;;;;;4.91;100.00;61362.03;5013575;28;20064;-70
2021/12/24 01:28:29;;;;;;;30.57;10.83;;;;;;;4.87;100.00;63325.38;5005440;28;20033;-70
2021/12/24 01:44:42;;;;;;;31.67;10.87;;;;;;;5.00;100.00;61371.25;4988431;28;20129;-70
2021/12/24 01:47:08;;;;;;;30.07;9.50;;;;;;;4.98;100.00;61369.06;4994613;28;20029;-70
2021/12/24 01:49:34;;;;;;;25.97;9.43;;;;;;;5.08;100.00;60724.03;4993602;28;20034;-70
2021/12/24 01:52:03;;;;;;;29.40;9.17;;;;;;;5.08;100.00;58101.84;4995236;28;20457;-71
2021/12/24 01:54:30;;;;;;;24.30;9.90;;;;;;;5.10;100.00;57448.66;4995872;28;20510;-71
2021/12/24 01:56:56;;;;;;;24.80;7.87;;;;;;;5.16;100.00;57782.38;4983477;28;20038;-70
2021/12/24 01:59:21;;;;;;;26.20;8.90;;;;;;;5.15;100.00;52870.09;4986256;28;20793;-70
2021/12/24 02:01:49;;;;;;;25.17;9.13;;;;;;;5.28;100.00;50918.91;4993528;22;20049;-69
2021/12/24 02:04:15;;;;;;;20.87;7.50;;;;;;;5.27;100.00;50918.00;5053588;28;20100;-69
2021/12/24 02:06:42;;;;;;;27.73;8.70;;;;;;;5.32;100.00;50595.03;5054943;28;20049;-69
2021/12/24 02:09:08;;;;;;;22.90;8.17;;;;;;;5.30;100.00;49613.13;5060165;28;20038;-69
2021/12/24 02:11:37;;;;;;;20.70;7.20;;;;;;;5.39;100.00;50274.28;5059169;28;20037;-69
2021/12/24 02:14:09;;;;;;;24.83;8.03;;;;;;;5.39;100.00;49947.69;5058749;28;20036;-69
2021/12/24 02:30:19;;;;;;;15.87;6.53;;;;;;;5.59;100.00;50946.59;5000841;28;20112;-69
2021/12/24 02:32:45;;;;;;;13.17;5.40;;;;;;;5.64;100.00;49969.50;5000330;28;20037;-69
2021/12/24 02:35:11;;;;;;;19.87;7.27;;;;;;;5.62;100.00;49313.03;5000131;28;20038;-69
2021/12/24 02:37:37;;;;;;;20.67;8.03;;;;;;;5.67;100.00;51607.97;4999675;28;20485;-69
2021/12/24 02:40:05;;;;;;;21.27;7.33;;;;;;;5.67;100.00;49645.00;5000727;28;20033;-69
2021/12/24 02:42:31;;;;;;;21.33;7.80;;;;;;;5.63;100.00;47025.50;5000150;28;20437;-69
2021/12/24 02:44:57;;;;;;;18.00;6.87;;;;;;;5.66;100.00;48665.56;4999904;28;20169;-69
2021/12/24 02:55:10;;;;;;;20.13;7.30;;;;;;;5.80;100.00;49328.84;5000360;28;20044;-69
2021/12/24 02:57:38;;;;;;;21.37;7.20;;;;;;;5.73;100.00;48014.81;5055774;28;20048;-69
2021/12/24 03:00:15;;;;;;;21.43;7.90;;;;;;;5.78;100.00;49654.28;5062977;28;20025;-69
2021/12/24 03:02:44;;;;;;;18.57;7.10;;;;;;;5.82;100.00;49657.84;5051585;28;20115;-69
2021/12/24 03:05:10;;;;;;;20.90;7.10;;;;;;;5.83;100.00;49658.72;5043080;28;20033;-69
2021/12/24 03:07:36;;;;;;;20.77;7.77;;;;;;;5.83;100.00;50641.00;5039947;28;20036;-69
2021/12/24 03:10:04;;;;;;;22.10;7.00;;;;;;;5.88;100.00;50645.06;5042944;28;20041;-69
2021/12/24 03:12:30;;;;;;;19.83;7.27;;;;;;;5.86;100.00;48353.06;5036858;28;20033;-69
2021/12/24 03:14:56;;;;;;;19.70;7.30;;;;;;;5.82;100.00;50312.81;5036190;28;20035;-69
2021/12/24 03:17:24;;;;;;;24.23;8.07;;;;;;;5.87;100.00;49662.69;5036295;28;20494;-69
2021/12/24 03:19:52;;;;;;;21.27;7.20;;;;;;;5.90;100.00;50646.88;5037062;28;20043;-69
2021/12/24 03:24:55;;;;;;;18.23;6.73;;;;;;;5.97;100.00;48361.72;5038530;28;20028;-69
2021/12/24 03:27:22;;;;;;;27.60;8.33;;;;;;;5.88;100.00;48354.38;5041980;28;20028;-69
2021/12/24 03:29:49;;;;;;;21.17;7.03;;;;;;;5.97;100.00;49671.13;5042268;28;20122;-69
2021/12/24 03:32:14;;;;;;;25.60;7.53;;;;;;;5.91;100.00;48684.13;5042009;28;20033;-69
2021/12/24 03:34:40;;;;;;;19.83;6.80;;;;;;;5.97;100.00;49998.00;5042306;28;20036;-69
2021/12/24 03:37:06;;;;;;;21.33;7.27;;;;;;;6.00;100.00;50001.13;5029997;28;20116;-69
2021/12/24 03:39:32;;;;;;;24.60;8.00;;;;;;;6.04;100.00;50004.25;5038503;28;20025;-69
2021/12/24 03:41:57;;;;;;;20.73;6.47;;;;;;;6.05;100.00;50005.13;5040561;28;20037;-69
2021/12/24 03:44:31;;;;;;;19.10;7.10;;;;;;;6.05;100.00;50332.53;5038899;28;20116;-69
2021/12/24 03:47:06;;;;;;;20.97;7.67;;;;;;;6.09;100.00;49353.97;5041412;28;20033;-69
2021/12/24 03:49:50;;;;;;;21.17;6.90;;;;;;;6.16;100.00;50014.94;5042147;28;20028;-66
2021/12/24 03:54:56;;;;;;;13.90;5.57;;;;;;;6.12;100.00;53614.91;5039847;28;20652;-67
2021/12/24 03:57:21;;;;;;;19.73;7.10;;;;;;;6.19;100.00;51655.31;5035776;28;20041;-66
2021/12/24 03:59:47;;;;;;;21.70;6.53;;;;;;;6.20;100.00;50673.03;5042508;28;20029;-66
2021/12/24 04:02:12;;;;;;;19.80;6.80;;;;;;;6.24;100.00;51331.81;5039770;28;20041;-66
2021/12/24 04:04:38;;;;;;;22.70;6.93;;;;;;;6.27;100.00;49697.25;5041490;28;20108;-67
2021/12/24 04:07:03;;;;;;;15.90;6.30;;;;;;;6.28;100.00;49698.13;5040943;28;20036;-66
2021/12/24 04:09:30;;;;;;;19.63;6.37;;;;;;;6.39;100.00;50362.56;5041500;28;20416;-67
2021/12/24 04:11:56;;;;;;;18.93;6.80;;;;;;;6.27;100.00;48714.53;5041825;28;20090;-66
2021/12/24 04:14:21;;;;;;;19.90;6.33;;;;;;;6.28;100.00;49043.25;5041132;28;20032;-66
2021/12/24 04:16:47;;;;;;;20.13;6.87;;;;;;;6.37;100.00;49051.13;5041386;28;20039;-66
2021/12/24 04:24:56;;;;;;;15.13;6.20;;;;;;;6.51;100.00;52339.41;5033438;28;20062;-67
2021/12/24 04:27:31;;;;;;;16.35;6.05;;;;;;;6.53;100.00;52013.88;5027168;28;20679;-67
2021/12/24 04:30:09;;;;;;;15.83;6.20;;;;;;;6.57;100.00;54312.88;5039852;28;20029;-67
2021/12/24 04:33:14;;;;;;;15.67;5.93;;;;;;;6.66;100.00;52353.38;5034571;28;20386;-67
2021/12/24 05:01:51;;;;;;;13.20;6.10;;;;;;;7.06;100.00;55344.78;5034518;28;20035;-67
2021/12/24 05:04:25;;;;;;;14.43;5.83;;;;;;;6.99;100.00;54025.06;5040232;28;20028;-67
2021/12/24 05:06:56;;;;;;;13.40;5.90;;;;;;;7.17;100.00;56340.72;5039357;28;20028;-67
2021/12/24 05:09:24;;;;;;;15.45;7.40;;;;;;;7.21;100.00;57002.00;5039384;28;20120;-67
2021/12/24 05:11:49;;;;;;;18.33;6.80;;;;;;;7.16;100.00;56668.31;5035059;28;20032;-67
2021/12/24 05:14:15;;;;;;;15.47;6.63;;;;;;;7.22;100.00;57003.00;5038496;28;20028;-67
2021/12/24 05:21:49;;;;;;;13.60;5.50;;;;;;;7.43;100.00;58010.72;5039571;28;20039;-67
2021/12/24 05:24:20;;;;;;;14.43;6.73;;;;;;;7.41;100.00;59653.50;5039739;28;20032;-67
2021/12/24 05:26:52;;;;;;;10.23;4.80;;;;;;;7.48;100.00;59660.34;5039289;28;20057;-67
2021/12/24 05:29:18;;;;;;;17.67;6.68;;;;;;;7.41;100.00;61957.03;5039276;28;20021;-67
2021/12/24 05:31:44;;;;;;;13.87;5.83;;;;;;;7.43;100.00;62289.06;5040093;28;20090;-67
2021/12/24 05:34:10;;;;;;;16.67;6.60;;;;;;;7.54;100.00;62959.38;5039849;28;20111;-67
2021/12/24 05:36:36;;;;;;;12.23;5.97;;;;;;;7.55;100.00;64279.06;5040423;28;20568;-67
2021/12/24 05:39:02;;;;;;;15.27;6.50;;;;;;;7.53;100.00;64935.97;5038218;28;20512;-67
2021/12/24 05:41:27;;;;;;;12.83;5.43;;;;;;;7.58;100.00;65930.19;5039982;28;20117;-67
2021/12/24 05:43:53;;;;;;;15.10;5.60;;;;;;;7.60;100.00;64943.97;5036880;28;20443;-67
2021/12/24 05:46:19;;;;;;;19.33;6.43;;;;;;;7.61;100.00;67583.44;5039419;28;20031;-67
2021/12/24 05:48:44;;;;;;;19.00;6.97;;;;;;;7.60;100.00;64943.97;5037206;28;20023;-66
2021/12/24 05:51:10;;;;;;;15.33;5.70;;;;;;;7.64;100.00;65607.97;5043926;28;20168;-66
2021/12/24 05:53:37;;;;;;;16.43;6.40;;;;;;;7.56;100.00;65598.75;5034348;28;20028;-66
2021/12/24 05:56:02;;;;;;;13.83;5.73;;;;;;;7.59;100.00;65931.94;5039733;28;20033;-66
2021/12/24 05:58:28;;;;;;;15.43;5.43;;;;;;;7.60;100.00;67251.78;5039732;28;20167;-67
2021/12/24 06:00:54;;;;;;;10.67;4.67;;;;;;;7.68;100.00;66271.59;5043785;28;20029;-67
2021/12/24 06:03:20;;;;;;;11.47;5.50;;;;;;;7.58;100.00;66590.31;5038736;28;20053;-66
2021/12/24 06:05:46;;;;;;;15.47;5.93;;;;;;;7.67;100.00;68579.97;5037338;28;20017;-67
2021/12/24 06:08:12;;;;;;;10.70;4.47;;;;;;;7.74;100.00;68588.38;5040406;28;20048;-67
2021/12/24 06:10:39;;;;;;;13.60;5.40;;;;;;;7.77;100.00;70902.88;5043467;28;20094;-66
2021/12/24 06:13:05;;;;;;;12.97;5.60;;;;;;;7.72;100.00;69246.19;5043067;28;20243;-66
2021/12/24 06:15:41;;;;;;;11.77;4.47;;;;;;;7.72;100.00;69576.34;5042896;28;20025;-66
2021/12/24 06:18:18;;;;;;;15.20;5.60;;;;;;;7.68;100.00;69570.88;5036680;28;20171;-67
2021/12/24 06:20:43;;;;;;;11.67;4.80;;;;;;;7.79;100.00;69914.50;5039301;28;20473;-67
2021/12/24 06:23:09;;;;;;;16.40;6.13;;;;;;;7.78;100.00;71234.47;5039913;28;20024;-67
2021/12/24 06:25:35;;;;;;;13.50;5.50;;;;;;;7.83;100.00;70910.34;5043536;28;20031;-67
2021/12/24 06:28:00;;;;;;;14.27;5.87;;;;;;;7.77;100.00;70903.50;5041241;28;20025;-67
2021/12/24 06:30:29;;;;;;;14.87;5.20;;;;;;;-145.18;100.00;60484.78;5035647;28;20028;-66
2021/12/24 06:32:56;;;;;;;13.13;5.27;;;;;;;7.74;100.00;73212.06;5042364;28;20108;-67
2021/12/24 06:35:21;;;;;;;12.37;4.43;;;;;;;7.85;100.00;74880.19;5043453;28;20439;-67
2021/12/24 06:37:47;;;;;;;11.23;4.77;;;;;;;7.88;100.00;76869.31;5036843;28;20124;-67
2021/12/24 06:40:12;;;;;;;11.00;4.53;;;;;;;7.85;100.00;76865.25;5043027;28;20028;-67
2021/12/24 06:42:38;;;;;;;15.33;5.27;;;;;;;7.85;100.00;77195.56;5042110;28;20025;-67
2021/12/24 06:45:04;;;;;;;12.83;5.03;;;;;;;7.85;100.00;78519.69;5043188;28;20496;-67
2021/12/24 06:47:29;;;;;;;17.37;5.43;;;;;;;7.90;100.00;80182.63;5042281;28;20033;-67
2021/12/24 06:49:55;;;;;;;13.17;5.70;;;;;;;7.89;100.00;80181.22;5042781;28;20107;-67
2021/12/24 06:52:20;;;;;;;16.60;6.50;;;;;;;7.86;100.00;80839.59;5040744;28;20690;-67
2021/12/24 06:54:45;;;;;;;17.10;5.70;;;;;;;7.86;100.00;80839.59;5042734;28;20083;-67
2021/12/24 06:57:15;;;;;;;15.27;5.67;;;;;;;7.87;100.00;81835.16;5041107;28;20500;-67
2021/12/24 06:59:40;;;;;;;11.70;5.03;;;;;;;7.95;100.00;82841.16;5041847;28;20024;-67
2021/12/24 07:02:06;;;;;;;15.70;5.63;;;;;;;7.93;100.00;82506.72;5039587;28;20123;-67
2021/12/24 07:04:32;;;;;;;16.97;5.80;;;;;;;7.95;100.00;83836.03;5042024;28;20054;-67
2021/12/24 07:06:57;;;;;;;15.50;6.07;;;;;;;7.90;100.00;84492.06;5041356;28;20037;-67
2021/12/24 07:09:23;;;;;;;14.57;5.67;;;;;;;7.96;100.00;85496.25;5042030;28;20037;-67
2021/12/24 07:11:49;;;;;;;17.00;6.90;;;;;;;7.94;100.00;86156.97;5041805;28;20455;-67
2021/12/24 07:14:15;;;;;;;16.70;6.73;;;;;;;7.90;100.00;87146.72;5041143;28;20315;-67
2021/12/24 07:16:40;;;;;;;17.23;5.97;;;;;;;7.93;100.00;87483.25;5041849;28;20021;-67
2021/12/24 07:19:06;;;;;;;14.03;5.83;;;;;;;7.88;100.00;88471.72;5041540;28;20447;-67
2021/12/24 07:21:34;;;;;;;17.83;6.53;;;;;;;7.93;100.00;90472.63;5042554;28;20025;-67
2021/12/24 07:24:01;;;;;;;17.63;5.90;;;;;;;7.87;100.00;91460.91;5040200;28;20029;-67
2021/12/24 07:26:26;;;;;;;17.93;5.40;;;;;;;7.90;100.00;92794.63;5042495;28;20564;-67
2021/12/24 07:28:52;;;;;;;19.33;6.77;;;;;;;7.83;100.00;92783.31;5037299;28;20100;-67
2021/12/24 07:31:17;;;;;;;15.90;6.57;;;;;;;7.85;100.00;93452.38;5041287;28;20712;-67
2021/12/24 07:33:42;;;;;;;18.83;6.53;;;;;;;7.87;100.00;93788.22;5032824;28;20031;-67
2021/12/24 07:36:08;;;;;;;14.53;5.83;;;;;;;7.87;100.00;96117.06;5041292;28;20119;-67
2021/12/24 07:38:33;;;;;;;18.70;5.67;;;;;;;7.89;100.00;95454.00;5040082;28;20028;-67
2021/12/24 07:41:00;;;;;;;19.30;6.13;;;;;;;7.82;100.00;94777.84;5042044;28;20100;-67
2021/12/24 07:43:25;;;;;;;17.73;6.10;;;;;;;7.89;100.00;95121.28;5037465;28;20033;-67
2021/12/24 07:45:52;;;;;;;20.77;7.00;;;;;;;7.85;100.00;95114.63;5041232;28;20020;-66
2021/12/24 07:48:26;;;;;;;18.90;6.83;;;;;;;7.89;100.00;95454.00;5041005;28;20033;-67
2021/12/24 07:53:18;;;;;;;16.73;6.47;;;;;;;7.88;100.00;95785.09;5032412;28;20033;-67
2021/12/24 07:55:43;;;;;;;17.20;5.60;;;;;;;7.88;100.00;95452.34;5036121;28;20700;-67
2021/12/24 07:58:09;;;;;;;14.00;5.73;;;;;;;7.86;100.00;96114.53;5033489;28;20021;-67
2021/12/24 08:00:37;;;;;;;18.20;5.80;;;;;;;7.89;100.00;96786.09;5041772;28;20067;-67
2021/12/24 08:03:03;;;;;;;14.53;6.23;;;;;;;7.94;100.00;97126.56;5030089;28;20057;-66
2021/12/24 08:05:30;;;;;;;13.80;5.20;;;;;;;7.86;100.00;98112.75;5041891;28;20013;-67
2021/12/24 08:07:56;;;;;;;14.03;5.33;;;;;;;7.91;100.00;98787.38;5034206;28;20433;-67
2021/12/24 08:10:27;;;;;;;13.50;5.50;;;;;;;7.94;100.00;99125.66;5040813;28;20025;-67
2021/12/24 08:12:53;;;;;;;13.32;5.13;;;;;;;7.93;100.00;100455.81;5033909;28;20033;-67
2021/12/24 08:15:19;;;;;;;14.40;5.83;;;;;;;7.96;100.00;102127.78;5041255;28;20029;-67
2021/12/24 08:17:45;;;;;;;11.63;4.40;;;;;;;7.94;100.00;103458.19;5036819;28;20056;-67
2021/12/24 08:20:13;;;;;;;11.10;4.43;;;;;;;7.97;100.00;104797.16;5041961;28;20624;-67
2021/12/24 08:22:38;;;;;;;13.10;5.00;;;;;;;7.91;100.00;105788.28;5041037;28;20645;-67
2021/12/24 08:25:07;;;;;;;9.43;4.07;;;;;;;7.95;100.00;107130.97;5037379;28;20026;-67
2021/12/24 08:27:33;;;;;;;11.87;4.63;;;;;;;7.90;100.00;107789.50;5035973;28;20063;-66
2021/12/24 08:29:58;;;;;;;12.00;4.40;;;;;;;7.88;100.00;109121.72;5041895;28;20436;-67
2021/12/24 08:32:24;;;;;;;11.70;4.70;;;;;;;7.93;100.00;109799.41;5038314;28;20025;-67
2021/12/24 08:34:52;;;;;;;10.53;3.90;;;;;;;7.92;100.00;111468.59;5041453;28;20700;-67
2021/12/24 08:37:17;;;;;;;10.90;4.73;;;;;;;7.92;100.00;110801.03;5039965;28;20066;-67
2021/12/24 08:39:42;;;;;;;10.83;4.53;;;;;;;7.93;100.00;110468.72;5041307;28;20182;-67
2021/12/24 08:42:08;;;;;;;8.80;4.00;;;;;;;7.98;100.00;111144.88;5040038;28;20024;-67
2021/12/24 08:44:35;;;;;;;10.20;4.43;;;;;;;7.96;100.00;112144.06;5040279;28;20029;-67
2021/12/24 08:47:01;;;;;;;10.07;3.80;;;;;;;7.98;100.00;112483.31;5038725;28;20107;-67
2021/12/24 08:49:28;;;;;;;8.23;3.80;;;;;;;7.95;100.00;112811.91;5038893;28;20194;-67
2021/12/24 08:51:55;;;;;;;8.43;4.10;;;;;;;7.94;100.00;113478.91;5040289;28;20025;-67
2021/12/24 08:54:21;;;;;;;11.53;4.63;;;;;;;7.94;100.00;114483.53;5039809;28;20039;-67
2021/12/24 08:56:49;;;;;;;7.03;3.30;;;;;;;7.98;100.00;114489.47;5039781;28;20033;-67
2021/12/24 08:59:14;;;;;;;7.50;3.27;;;;;;;7.96;100.00;115155.78;5039899;28;20047;-67
2021/12/24 09:01:42;;;;;;;7.57;3.50;;;;;;;7.93;100.00;115819.19;5040104;28;20025;-67
2021/12/24 09:04:09;;;;;;;9.03;3.30;;;;;;;7.86;100.00;116139.81;5040330;28;20039;-67
2021/12/24 09:06:35;;;;;;;8.17;3.33;;;;;;;7.89;100.00;116480.63;5040497;28;20032;-67
2021/12/24 09:09:00;;;;;;;7.67;2.87;;;;;;;7.88;100.00;116478.63;5035764;28;20037;-67
2021/12/24 09:11:26;;;;;;;9.37;3.73;;;;;;;7.85;100.00;116472.53;5039566;28;20116;-67
2021/12/24 09:13:52;;;;;;;6.90;2.70;;;;;;;7.87;100.00;117480.97;5039052;28;20089;-67
2021/12/24 09:16:17;;;;;;;8.57;3.27;;;;;;;7.85;100.00;117476.91;5037787;28;20060;-67
2021/12/24 09:18:44;;;;;;;6.23;2.87;;;;;;;7.85;100.00;117812.78;5038036;28;20116;-67
2021/12/24 09:21:15;;;;;;;10.90;3.33;;;;;;;7.79;100.00;118134.38;5040408;28;20463;-67
2021/12/24 09:23:43;;;;;;;7.90;3.42;;;;;;;7.79;100.00;117799.53;5038248;28;20044;-67
2021/12/24 09:26:09;;;;;;;9.10;3.30;;;;;;;7.83;100.00;118142.53;5044714;28;20045;-67
2021/12/24 09:28:34;;;;;;;9.13;3.30;;;;;;;7.79;100.00;118135.41;5041580;28;20109;-66
2021/12/24 09:31:00;;;;;;;6.53;2.73;;;;;;;7.83;100.00;118143.56;5044777;28;20024;-66
2021/12/24 09:33:25;;;;;;;6.73;3.23;;;;;;;7.79;100.00;118804.16;5039835;28;20401;-66
2021/12/24 09:35:50;;;;;;;9.90;4.10;;;;;;;7.79;100.00;117464.72;5044241;28;20524;-66
2021/12/24 09:38:16;;;;;;;8.87;3.67;;;;;;;7.76;100.00;118128.25;5040460;28;20056;-66
2021/12/24 09:40:41;;;;;;;8.90;3.37;;;;;;;7.81;100.00;118473.34;5043926;28;20491;-66
2021/12/24 09:43:07;;;;;;;10.23;4.43;;;;;;;7.82;100.00;117805.63;5041774;28;20017;-66
2021/12/24 09:45:32;;;;;;;11.60;4.33;;;;;;;7.77;100.00;117795.44;5038229;28;20021;-66
2021/12/24 09:47:57;;;;;;;10.47;3.80;;;;;;;7.80;100.00;117466.75;5036608;28;20029;-67
2021/12/24 09:50:25;;;;;;;9.60;3.63;;;;;;;7.78;100.00;117798.50;5035587;28;20028;-66
2021/12/24 09:52:51;;;;;;;10.77;4.30;;;;;;;7.80;100.00;118471.31;5024754;28;20029;-67
2021/12/24 09:55:20;;;;;;;9.40;4.17;;;;;;;7.82;100.00;118141.53;5030006;28;20448;-66
2021/12/24 09:57:46;;;;;;;9.63;4.63;;;;;;;7.82;100.00;117805.63;5033258;28;20029;-66
2021/12/24 10:00:15;;;;;;;8.23;3.40;;;;;;;7.86;100.00;118148.69;5041639;28;20025;-67
2021/12/24 10:02:46;;;;;;;15.33;4.53;;;;;;;7.84;100.00;117809.72;5032121;28;20044;-66
2021/12/24 10:05:32;;;;;;;11.87;4.33;;;;;;;7.80;100.00;117802.59;5044091;28;20033;-66
2021/12/24 10:08:01;;;;;;;13.67;4.17;;;;;;;7.77;100.00;119136.03;5035230;28;20037;-66
2021/12/24 10:10:29;;;;;;;9.63;4.47;;;;;;;7.79;100.00;118804.16;5043421;28;20548;-67
2021/12/24 10:12:58;;;;;;;9.63;4.23;;;;;;;7.77;100.00;119805.97;5034473;28;20037;-67
2021/12/24 10:15:23;;;;;;;13.00;4.67;;;;;;;7.78;100.00;119473.06;5040793;28;20033;-67
2021/12/24 10:17:49;;;;;;;9.83;4.67;;;;;;;7.76;100.00;119802.88;5034857;28;20040;-67
2021/12/24 10:20:16;;;;;;;15.07;4.70;;;;;;;7.74;100.00;119798.69;5035153;28;20735;-67
2021/12/24 10:22:45;;;;;;;15.57;4.60;;;;;;;7.75;100.00;120135.78;5035318;28;20041;-67
2021/12/24 10:25:13;;;;;;;12.63;4.63;;;;;;;7.70;100.00;120795.47;5041834;28;20020;-67
2021/12/24 10:27:40;;;;;;;13.40;4.47;;;;;;;7.69;100.00;120793.38;5037577;28;20040;-68
2021/12/24 10:30:15;;;;;;;10.73;4.00;;;;;;;7.70;100.00;121801.88;5039046;28;20535;-67
2021/12/24 10:32:41;;;;;;;10.87;4.40;;;;;;;7.68;100.00;122466.97;5035870;28;20033;-68
2021/12/24 10:35:20;;;;;;;12.27;4.27;;;;;;;7.69;100.00;122134.94;5037411;28;20045;-67
2021/12/24 10:37:45;;;;;;;12.23;4.50;;;;;;;7.74;100.00;121475.13;5037377;28;20771;-68
2021/12/24 10:40:13;;;;;;;11.80;4.47;;;;;;;7.67;100.00;122464.84;5043180;28;20021;-68
2021/12/24 10:42:40;;;;;;;10.70;3.57;;;;;;;7.24;100.00;121705.91;5038782;28;20040;-68
2021/12/24 10:45:16;;;;;;;5.40;2.70;;;;;;;6.22;100.00;114814.94;5042851;28;20024;-68
2021/12/24 10:47:42;;;;;;;3.93;1.80;;;;;;;5.69;100.00;111045.84;5035527;28;20428;-67
2021/12/24 10:53:20;;;;;;;3.03;1.45;;;;;;;5.00;100.00;110249.56;5040674;28;20063;-67
2021/12/24 10:55:49;;;;;;;3.20;1.47;;;;;;;4.73;100.00;110531.28;5033599;28;20032;-67
2021/12/24 10:58:18;;;;;;;4.03;1.60;;;;;;;4.52;100.00;110491.91;5034410;28;20031;-67
2021/12/24 11:00:48;;;;;;;5.20;1.87;;;;;;;4.34;100.00;110789.59;5043599;28;20028;-67
2021/12/24 11:03:17;;;;;;;11.03;2.30;;;;;;;4.21;100.00;110432.38;5042592;28;20056;-67
2021/12/24 11:05:45;;;;;;;6.23;2.20;;;;;;;4.07;100.00;111071.72;5050269;28;20027;-67
2021/12/24 11:08:16;;;;;;;5.27;2.30;;;;;;;3.95;100.00;111048.53;5040652;28;20083;-67
2021/12/24 11:10:46;;;;;;;7.73;2.67;;;;;;;3.89;100.00;110703.97;5039986;28;20028;-67
2021/12/24 11:13:28;;;;;;;6.30;2.60;;;;;;;3.80;100.00;111019.59;5046260;28;20032;-67
2021/12/24 11:15:55;;;;;;;6.07;2.60;;;;;;;3.74;100.00;111340.00;5036187;28;20032;-67
2021/12/24 11:18:22;;;;;;;8.57;2.83;;;;;;;3.72;100.00;111668.16;5044595;28;20082;-67
2021/12/24 11:20:57;;;;;;;4.97;2.10;;;;;;;3.70;100.00;111996.31;5041318;28;20115;-67
2021/12/24 11:23:26;;;;;;;4.73;2.03;;;;;;;3.69;100.00;112658.53;5035108;28;20048;-67
2021/12/24 11:25:52;;;;;;;4.87;2.37;;;;;;;3.65;100.00;112318.63;5039235;28;20472;-67
2021/12/24 11:28:19;;;;;;;4.00;1.90;;;;;;;3.62;100.00;112312.75;5042117;28;20036;-67
2021/12/24 11:30:52;;;;;;;3.93;1.80;;;;;;;3.59;100.00;112639.91;5038424;28;20037;-67
2021/12/24 11:33:19;;;;;;;7.73;2.47;;;;;;;3.66;100.00;112320.59;5038704;28;20059;-67
2021/12/24 11:35:47;;;;;;;4.37;1.97;;;;;;;3.64;100.00;111985.63;5043290;28;20072;-67
2021/12/24 11:38:15;;;;;;;5.37;1.83;;;;;;;3.64;100.00;111985.63;5042627;28;20032;-67
2021/12/24 11:40:41;;;;;;;4.40;2.00;;;;;;;3.57;100.00;111640.00;5046663;28;20032;-67
2021/12/24 11:43:07;;;;;;;3.33;1.80;;;;;;;3.50;100.00;110963.59;5040262;28;20053;-67
2021/12/24 11:45:33;;;;;;;3.63;1.47;;;;;;;3.57;100.00;111308.06;5037360;28;20650;-67
2021/12/24 11:48:01;;;;;;;3.83;2.00;;;;;;;3.50;100.00;110631.75;5031511;28;20074;-67
2021/12/24 11:50:27;;;;;;;3.50;1.80;;;;;;;3.48;100.00;110627.91;5035797;28;20032;-67
2021/12/24 11:52:56;;;;;;;3.10;1.60;;;;;;;3.52;100.00;110966.53;5033509;28;20044;-67
2021/12/24 11:55:23;;;;;;;5.13;2.10;;;;;;;3.58;100.00;111309.03;5035542;28;20043;-67
2021/12/24 11:57:50;;;;;;;4.30;2.03;;;;;;;3.62;100.00;111316.75;5033992;28;20039;-67
2021/12/24 12:00:22;;;;;;;3.63;1.53;;;;;;;3.66;100.00;111657.50;5034331;28;20094;-67
2021/12/24 12:02:47;;;;;;;5.90;2.88;;;;;;;3.64;100.00;111653.63;5041140;28;20044;-67
2021/12/24 12:05:16;;;;;;;3.57;1.80;;;;;;;3.60;100.00;110980.97;5044531;28;20020;-67
2021/12/24 12:07:41;;;;;;;4.43;2.07;;;;;;;3.57;100.00;108653.69;5041887;28;20037;-67
2021/12/24 12:10:08;;;;;;;4.07;2.17;;;;;;;3.52;100.00;108312.63;5040768;28;20616;-67
2021/12/24 12:12:35;;;;;;;4.30;2.07;;;;;;;3.57;100.00;109980.63;5043606;28;20129;-67
2021/12/24 12:15:30;;;;;;;4.83;2.70;;;;;;;3.58;100.00;110977.13;5044358;28;20033;-67
2021/12/24 12:18:04;;;;;;;4.27;1.90;;;;;;;3.46;100.00;109628.81;5043652;28;20052;-67
2021/12/24 12:20:56;;;;;;;4.37;2.20;;;;;;;3.48;100.00;109632.63;5046757;28;20024;-67
2021/12/24 12:24:57;;;;;;;5.22;2.45;;;;;;;3.51;100.00;108974.97;5038541;28;20523;-67
2021/12/24 12:26:44;;;;;;;4.07;1.93;;;;;;;3.62;100.00;109657.41;5046122;28;20040;-67
2021/12/24 12:29:32;;;;;;;4.10;2.37;;;;;;;3.64;100.00;109329.47;5034905;28;20039;-67
2021/12/24 12:32:06;;;;;;;4.80;2.30;;;;;;;3.62;100.00;108993.91;5037825;28;20039;-67
2021/12/24 12:34:43;;;;;;;5.43;2.23;;;;;;;3.66;100.00;108669.75;5038679;28;20032;-67
2021/12/24 12:37:18;;;;;;;4.00;2.17;;;;;;;3.58;100.00;107991.34;5034212;28;20041;-67
2021/12/24 12:39:46;;;;;;;5.23;2.30;;;;;;;3.60;100.00;107663.50;5043768;28;20035;-67
2021/12/24 12:42:17;;;;;;;4.43;2.40;;;;;;;3.66;100.00;107343.13;5040064;28;20040;-67
2021/12/24 12:44:50;;;;;;;6.00;2.80;;;;;;;3.67;100.00;107345.94;5035006;28;22190;-67
2021/12/24 12:47:22;;;;;;;7.07;3.00;;;;;;;3.63;100.00;107005.94;5034651;28;20039;-67
2021/12/24 12:49:49;;;;;;;5.10;2.50;;;;;;;3.63;100.00;107005.94;5037699;28;20029;-67
2021/12/24 12:52:24;;;;;;;4.60;2.73;;;;;;;3.56;100.00;106661.44;5031716;28;20029;-68
2021/12/24 12:54:55;;;;;;;6.13;2.80;;;;;;;3.51;100.00;106654.03;5026081;28;20036;-67
2021/12/24 12:57:27;;;;;;;6.73;3.57;;;;;;;3.55;100.00;107322.59;5030021;28;20056;-67
2021/12/24 13:00:08;;;;;;;7.43;3.00;;;;;;;3.53;100.00;107651.34;5031666;28;20060;-67
2021/12/24 13:05:43;;;;;;;4.63;2.60;;;;;;;3.55;100.00;107322.59;5033654;28;20039;-67
2021/12/24 13:08:21;;;;;;;9.10;3.17;;;;;;;3.49;100.00;107976.31;5034490;28;20067;-67
2021/12/24 13:11:03;;;;;;;5.50;2.70;;;;;;;3.48;100.00;108306.00;5034975;28;20021;-67
2021/12/24 13:13:29;;;;;;;5.93;2.97;;;;;;;3.51;100.00;108643.31;5024683;28;20036;-67
2021/12/24 13:15:54;;;;;;;5.20;2.90;;;;;;;3.48;100.00;109300.91;5032347;28;20128;-67